createdAt,value
2019-03-10T00:01:52.864Z,6.43
2019-03-10T00:04:21.639Z,9.83
2019-03-10T00:06:50.443Z,6.80
2019-03-10T00:09:19.265Z,9.47
2019-03-10T00:11:48.146Z,10.60
2019-03-10T00:14:17.194Z,7.77
2019-03-10T00:16:46.020Z,10.93
2019-03-10T00:19:15.048Z,9.93
2019-03-10T00:21:46.014Z,13.27
2019-03-10T00:24:16.962Z,12.83
2019-03-10T00:26:47.921Z,9.47
2019-03-10T00:29:16.806Z,10.67
2019-03-10T00:31:46.737Z,13.97
2019-03-10T00:34:16.737Z,13.60
2019-03-10T00:36:45.863Z,9.53
2019-03-10T00:39:56.012Z,15.70
2019-03-10T00:43:05.496Z,14.03
2019-03-10T00:46:16.570Z,14.20
2019-03-10T00:49:16.258Z,14.00
2019-03-10T00:52:29.085Z,11.80
2019-03-10T00:54:59.029Z,12.93
2019-03-10T00:57:28.081Z,10.97
2019-03-10T00:59:56.968Z,13.80
2019-03-10T01:02:26.821Z,16.33
2019-03-10T01:04:55.851Z,15.43
2019-03-10T01:07:26.869Z,11.90
2019-03-10T01:09:55.859Z,15.53
2019-03-10T01:12:25.107Z,17.80
2019-03-10T01:14:54.056Z,13.03
2019-03-10T01:17:27.071Z,18.10
2019-03-10T01:19:56.091Z,15.13
2019-03-10T01:22:27.347Z,14.03
2019-03-10T01:24:57.413Z,19.00
2019-03-10T01:27:26.507Z,15.20
2019-03-10T01:29:57.403Z,13.47
2019-03-10T01:33:08.036Z,15.93
2019-03-10T01:35:39.806Z,13.77
2019-03-10T01:38:08.735Z,12.60
2019-03-10T01:40:37.666Z,11.40
2019-03-10T01:43:06.764Z,13.57
2019-03-10T01:45:35.749Z,12.90
2019-03-10T01:48:04.688Z,15.90
2019-03-10T01:50:33.620Z,13.70
2019-03-10T01:53:02.499Z,14.70
2019-03-10T01:55:31.546Z,14.17
2019-03-10T01:58:00.484Z,14.53
2019-03-10T02:00:29.431Z,13.93
2019-03-10T02:03:04.840Z,18.63
2019-03-10T02:05:34.831Z,15.87
2019-03-10T02:08:04.768Z,14.63
2019-03-10T02:10:33.756Z,13.63
2019-03-10T02:13:04.756Z,14.73
2019-03-10T02:15:33.727Z,17.63
2019-03-10T02:18:03.737Z,16.90
2019-03-10T02:20:32.612Z,12.37
2019-03-10T02:23:01.573Z,13.73
2019-03-10T02:25:34.672Z,14.03
2019-03-10T02:28:03.563Z,14.60
2019-03-10T02:30:38.412Z,13.70
2019-03-10T02:33:12.149Z,12.43
2019-03-10T02:35:43.040Z,12.87
2019-03-10T02:38:12.025Z,13.10
2019-03-10T02:40:43.249Z,12.33
2019-03-10T02:43:11.593Z,11.17
2019-03-10T02:45:40.495Z,11.77
2019-03-10T02:48:12.745Z,15.33
2019-03-10T02:50:41.731Z,11.60
2019-03-10T02:53:10.659Z,11.27
2019-03-10T02:55:39.665Z,9.77
2019-03-10T02:58:09.721Z,10.40
2019-03-10T03:00:38.602Z,10.07
2019-03-10T03:03:08.451Z,10.37
2019-03-10T03:05:37.310Z,11.20
2019-03-10T03:08:06.200Z,10.90
2019-03-10T03:10:35.109Z,10.73
2019-03-10T03:13:06.225Z,13.33
2019-03-10T03:15:35.094Z,11.00
2019-03-10T03:18:04.183Z,8.23
2019-03-10T03:20:33.196Z,8.20
2019-03-10T03:23:03.066Z,12.03
2019-03-10T03:25:34.739Z,10.87
2019-03-10T03:28:03.857Z,10.23
2019-03-10T03:30:32.985Z,12.00
2019-03-10T03:33:01.827Z,12.63
2019-03-10T03:35:58.822Z,9.97
2019-03-10T03:38:49.625Z,14.60
2019-03-10T03:41:19.688Z,11.93
2019-03-10T03:43:49.676Z,13.90
2019-03-10T03:46:18.852Z,15.37
2019-03-10T03:48:48.208Z,17.10
2019-03-10T03:51:17.107Z,10.23
2019-03-10T03:53:46.113Z,13.97
2019-03-10T03:56:16.102Z,17.67
2019-03-10T03:58:44.995Z,11.67
2019-03-10T04:01:37.412Z,12.93
2019-03-10T04:04:08.651Z,13.57
2019-03-10T04:06:38.607Z,11.03
2019-03-10T04:09:09.289Z,11.83
2019-03-10T04:11:38.287Z,11.70
2019-03-10T04:14:07.410Z,10.60
2019-03-10T04:16:36.348Z,14.33
2019-03-10T04:19:05.178Z,13.30
2019-03-10T04:21:33.937Z,11.73
2019-03-10T04:24:02.699Z,11.97
2019-03-10T04:26:31.439Z,12.10
2019-03-10T04:29:00.194Z,8.30
2019-03-10T04:31:28.947Z,9.70
2019-03-10T04:33:57.704Z,14.33
2019-03-10T04:36:26.456Z,11.00
2019-03-10T04:38:55.217Z,12.80
2019-03-10T04:41:23.994Z,14.33
2019-03-10T04:43:52.812Z,14.50
2019-03-10T04:46:21.578Z,13.27
2019-03-10T04:48:50.315Z,10.03
2019-03-10T04:51:19.085Z,15.00
2019-03-10T04:53:47.830Z,15.80
2019-03-10T04:56:25.219Z,13.07
2019-03-10T04:58:53.964Z,10.83
2019-03-10T05:01:23.203Z,12.37
2019-03-10T05:03:51.947Z,10.50
2019-03-10T05:06:20.718Z,10.33
2019-03-10T05:08:49.540Z,10.00
2019-03-10T05:11:18.309Z,16.70
2019-03-10T05:13:47.072Z,12.50
2019-03-10T05:16:15.907Z,18.00
2019-03-10T05:18:44.732Z,10.40
2019-03-10T05:21:13.495Z,10.70
2019-03-10T05:23:43.585Z,13.23
2019-03-10T05:26:13.332Z,11.50
2019-03-10T05:28:46.298Z,13.77
2019-03-10T05:31:15.376Z,18.27
2019-03-10T05:33:44.309Z,13.50
2019-03-10T05:36:13.080Z,16.03
2019-03-10T05:38:41.826Z,13.30
2019-03-10T05:41:10.606Z,17.07
2019-03-10T05:43:39.356Z,16.50
2019-03-10T05:46:08.132Z,12.63
2019-03-10T05:48:36.887Z,18.63
2019-03-10T05:51:05.661Z,19.77
2019-03-10T05:53:34.403Z,17.00
2019-03-10T05:56:03.189Z,24.43
2019-03-10T05:58:31.935Z,23.57
2019-03-10T06:01:00.718Z,22.77
2019-03-10T06:03:29.479Z,23.70
2019-03-10T06:05:58.244Z,30.37
2019-03-10T06:08:27.076Z,20.43
2019-03-10T06:10:55.861Z,19.33
2019-03-10T06:13:24.623Z,19.03
2019-03-10T06:15:53.400Z,22.43
2019-03-10T06:18:22.169Z,20.40
2019-03-10T06:20:50.923Z,24.67
2019-03-10T06:23:19.700Z,27.17
2019-03-10T06:25:48.500Z,28.40
2019-03-10T06:28:17.315Z,29.57
2019-03-10T06:30:46.155Z,30.93
2019-03-10T06:33:14.944Z,33.27
2019-03-10T06:35:43.713Z,23.50
2019-03-10T06:38:12.564Z,23.27
2019-03-10T06:40:41.340Z,19.87
2019-03-10T06:43:10.122Z,24.47
2019-03-10T06:45:38.878Z,28.83
2019-03-10T06:48:07.644Z,38.83
2019-03-10T06:50:36.416Z,29.63
2019-03-10T06:53:05.268Z,29.23
2019-03-10T06:55:34.086Z,26.13
2019-03-10T06:58:02.867Z,27.50
2019-03-10T07:00:31.629Z,30.80
2019-03-10T07:03:00.409Z,41.10
2019-03-10T07:05:29.175Z,29.23
2019-03-10T07:07:57.940Z,38.80
2019-03-10T07:10:26.701Z,31.67
2019-03-10T07:12:55.485Z,34.27
2019-03-10T07:15:24.265Z,37.33
2019-03-10T07:17:53.030Z,34.63
2019-03-10T07:20:21.797Z,31.63
2019-03-10T07:22:50.571Z,36.80
2019-03-10T07:25:19.412Z,27.93
2019-03-10T07:28:00.344Z,35.63
2019-03-10T07:30:32.000Z,40.40
2019-03-10T07:33:29.352Z,46.07
2019-03-10T07:36:26.361Z,48.33
2019-03-10T07:39:08.752Z,54.63
2019-03-10T07:41:43.877Z,36.20
2019-03-10T07:44:31.759Z,31.37
2019-03-10T07:47:19.662Z,24.67
2019-03-10T07:50:16.308Z,19.07
2019-03-10T07:53:06.989Z,20.37
2019-03-10T07:55:53.692Z,24.10
2019-03-10T07:58:43.895Z,18.37
2019-03-10T08:01:19.033Z,17.43
2019-03-10T08:04:02.786Z,13.47
2019-03-10T08:06:43.329Z,13.70
2019-03-10T08:09:28.512Z,17.63
2019-03-10T08:12:22.476Z,13.77
2019-03-10T08:15:16.379Z,17.57
2019-03-10T08:18:02.471Z,19.43
2019-03-10T08:20:50.396Z,10.93
2019-03-10T08:23:27.891Z,18.67
2019-03-10T08:26:08.545Z,9.70
2019-03-10T08:29:03.256Z,15.73
2019-03-10T08:31:51.152Z,10.33
2019-03-10T08:34:37.392Z,6.03
2019-03-10T08:37:14.352Z,5.40
2019-03-10T08:39:56.476Z,10.13
2019-03-10T08:42:38.252Z,13.27
2019-03-10T08:45:13.913Z,6.90
2019-03-10T08:47:52.217Z,10.00
2019-03-10T08:50:27.464Z,7.67
2019-03-10T08:53:14.684Z,7.00
2019-03-10T08:55:55.018Z,12.83
2019-03-10T08:58:42.892Z,8.60
2019-03-10T09:01:18.405Z,3.30
2019-03-10T09:03:54.995Z,4.40
2019-03-10T09:06:40.256Z,6.37
2019-03-10T09:09:16.020Z,6.90
2019-03-10T09:11:54.327Z,11.63
2019-03-10T09:14:39.097Z,9.90
2019-03-10T09:17:16.477Z,5.77
2019-03-10T09:20:13.499Z,5.43
2019-03-10T09:23:00.074Z,13.53
2019-03-10T09:25:36.820Z,18.10
2019-03-10T09:28:23.564Z,10.00
2019-03-10T09:31:11.442Z,3.50
2019-03-10T09:33:48.432Z,11.03
2019-03-10T09:36:38.731Z,3.93
2019-03-10T09:39:18.277Z,5.00
2019-03-10T09:42:07.604Z,1.80
2019-03-10T09:44:52.208Z,4.73
2019-03-10T09:47:44.729Z,1.57
2019-03-10T09:50:31.853Z,1.13
2019-03-10T09:53:31.804Z,1.07
2019-03-10T09:56:09.590Z,0.90
2019-03-10T09:58:45.224Z,1.10
2019-03-10T10:01:33.096Z,0.87
2019-03-10T10:04:20.087Z,1.20
2019-03-10T10:07:20.481Z,0.90
2019-03-10T10:10:14.451Z,1.03
2019-03-10T10:12:52.784Z,0.90
2019-03-10T10:15:39.308Z,1.27
2019-03-10T10:18:30.140Z,0.90
2019-03-10T10:21:09.716Z,1.10
2019-03-10T10:23:45.343Z,0.97
2019-03-10T10:26:42.344Z,0.73
2019-03-10T10:29:21.750Z,0.60
2019-03-10T10:32:03.638Z,0.70
2019-03-10T10:34:45.030Z,0.70
2019-03-10T10:37:48.103Z,0.73
2019-03-10T10:40:39.856Z,0.57
2019-03-10T10:43:29.821Z,1.40
2019-03-10T10:46:05.382Z,0.80
2019-03-10T10:48:40.213Z,0.73
2019-03-10T10:51:22.109Z,3.00
2019-03-10T10:54:08.814Z,0.60
2019-03-10T10:56:55.674Z,0.50
2019-03-10T10:59:42.554Z,0.50
2019-03-10T11:02:17.679Z,0.40
2019-03-10T11:04:52.597Z,0.80
2019-03-10T11:07:52.811Z,0.50
2019-03-10T11:10:46.830Z,0.40
2019-03-10T11:13:29.017Z,0.40
2019-03-10T11:16:06.924Z,0.50
2019-03-10T11:18:53.485Z,0.60
2019-03-10T11:21:41.512Z,0.90
2019-03-10T11:24:17.744Z,0.80
2019-03-10T11:26:55.518Z,0.70
2019-03-10T11:29:33.410Z,0.70
2019-03-10T11:32:18.013Z,0.80
2019-03-10T11:35:04.625Z,1.13
2019-03-10T11:37:46.892Z,1.93
2019-03-10T11:40:33.279Z,1.37
2019-03-10T11:43:10.066Z,1.03
2019-03-10T11:46:04.941Z,1.93
2019-03-10T11:48:40.012Z,2.67
2019-03-10T11:51:24.243Z,1.30
2019-03-10T11:54:19.176Z,1.80
2019-03-10T11:57:00.942Z,2.10
2019-03-10T11:59:34.430Z,4.53
2019-03-10T12:02:15.916Z,4.40
2019-03-10T12:05:00.489Z,79.97
2019-03-10T12:07:42.886Z,4.80
2019-03-10T12:10:11.719Z,2.93
2019-03-10T12:12:40.585Z,2.87
2019-03-10T12:15:09.930Z,2.90
2019-03-10T12:17:38.779Z,3.20
2019-03-10T12:20:09.117Z,3.73
2019-03-10T12:22:37.914Z,4.63
2019-03-10T12:25:07.711Z,5.67
2019-03-10T12:27:36.511Z,8.20
2019-03-10T12:30:06.230Z,8.00
2019-03-10T12:32:35.024Z,25.47
2019-03-10T12:35:04.205Z,410.77
2019-03-10T12:37:33.009Z,282.30
2019-03-10T12:40:01.809Z,370.90
2019-03-10T12:42:30.620Z,170.43
2019-03-10T12:44:59.384Z,202.93
2019-03-10T12:47:28.171Z,15.27
2019-03-10T12:49:57.007Z,8.07
2019-03-10T12:52:25.816Z,24.27
2019-03-10T12:54:54.602Z,10.43
2019-03-10T12:57:23.795Z,20.00
2019-03-10T12:59:52.581Z,63.47
2019-03-10T13:02:21.420Z,56.50
2019-03-10T13:04:50.260Z,4.60
2019-03-10T13:07:19.062Z,3.73
2019-03-10T13:09:47.845Z,4.90
2019-03-10T13:12:16.685Z,8.83
2019-03-10T13:14:45.439Z,3.30
2019-03-10T13:17:14.218Z,4.37
2019-03-10T13:19:43.065Z,61.47
2019-03-10T13:22:11.855Z,298.47
2019-03-10T13:24:40.749Z,203.33
2019-03-10T13:27:10.043Z,172.33
2019-03-10T13:29:38.860Z,435.03
2019-03-10T13:32:07.665Z,452.67
2019-03-10T13:34:36.455Z,632.53
2019-03-10T13:37:05.233Z,217.93
2019-03-10T13:39:34.024Z,42.13
2019-03-10T13:42:02.968Z,308.27
2019-03-10T13:44:31.858Z,706.23
2019-03-10T13:47:00.647Z,476.33
2019-03-10T13:49:29.467Z,1103.80
2019-03-10T13:51:58.335Z,1078.80
2019-03-10T13:54:30.232Z,763.73
2019-03-10T13:56:59.009Z,9.53
2019-03-10T13:59:27.861Z,9.20
2019-03-10T14:01:56.636Z,8.17
2019-03-10T14:04:25.517Z,144.30
2019-03-10T14:06:56.709Z,23.57
2019-03-10T14:09:25.512Z,42.57
2019-03-10T14:11:54.300Z,14.00
2019-03-10T14:14:23.078Z,160.17
2019-03-10T14:16:51.948Z,298.43
2019-03-10T14:19:20.743Z,324.13
2019-03-10T14:21:49.511Z,320.00
2019-03-10T14:24:18.365Z,23.27
2019-03-10T14:26:47.153Z,13.37
2019-03-10T14:29:16.018Z,6.83
2019-03-10T14:31:44.808Z,5.47
2019-03-10T14:34:13.574Z,8.87
2019-03-10T14:36:42.361Z,14.40
2019-03-10T14:39:11.497Z,16.10
2019-03-10T14:41:40.284Z,11.37
2019-03-10T14:44:09.068Z,7.00
2019-03-10T14:46:37.997Z,5.27
2019-03-10T14:49:07.595Z,6.97
2019-03-10T14:51:36.381Z,7.47
2019-03-10T14:54:08.216Z,8.07
2019-03-10T14:56:52.711Z,8.13
2019-03-10T14:59:21.503Z,13.97
2019-03-10T15:01:50.299Z,10.47
2019-03-10T15:04:19.335Z,9.97
2019-03-10T15:06:48.911Z,9.80
2019-03-10T15:09:17.748Z,9.03
2019-03-10T15:11:46.608Z,7.80
2019-03-10T15:14:15.401Z,16.53
2019-03-10T15:16:44.175Z,8.03
2019-03-10T15:19:13.276Z,9.03
2019-03-10T15:21:42.203Z,10.60
2019-03-10T15:24:11.219Z,7.23
2019-03-10T15:26:45.679Z,11.80
2019-03-10T15:29:10.641Z,12.33
2019-03-10T15:31:39.400Z,8.20
2019-03-10T15:34:08.264Z,10.40
2019-03-10T15:36:37.112Z,7.27
2019-03-10T15:39:06.940Z,10.07
2019-03-10T15:41:35.715Z,11.17
2019-03-10T15:44:04.562Z,14.77
2019-03-10T15:46:33.360Z,15.23
2019-03-10T15:49:02.135Z,11.23
2019-03-10T15:51:30.920Z,8.07
2019-03-10T15:53:59.708Z,9.37
2019-03-10T15:56:28.491Z,8.40
2019-03-10T15:58:57.293Z,10.00
2019-03-10T16:01:26.154Z,8.73
2019-03-10T16:03:55.077Z,8.03
2019-03-10T16:06:23.873Z,9.10
2019-03-10T16:09:11.739Z,7.20
2019-03-10T16:11:40.556Z,7.63
2019-03-10T16:14:09.384Z,5.63
2019-03-10T16:16:38.169Z,4.70
2019-03-10T16:19:07.046Z,6.83
2019-03-10T16:21:57.953Z,4.90
2019-03-10T16:24:26.989Z,5.37
2019-03-10T16:26:55.869Z,6.30
2019-03-10T16:29:24.744Z,5.57
2019-03-10T16:31:53.654Z,5.60
2019-03-10T16:34:24.742Z,4.80
2019-03-10T16:36:56.668Z,4.20
2019-03-10T16:39:25.448Z,4.43
2019-03-10T16:41:57.500Z,4.00
2019-03-10T16:44:27.523Z,3.90
2019-03-10T16:46:56.340Z,3.90
2019-03-10T16:49:25.368Z,3.30
2019-03-10T16:51:54.394Z,3.40
2019-03-10T16:54:23.307Z,3.53
2019-03-10T16:57:11.790Z,4.57
2019-03-10T16:59:40.638Z,3.43
2019-03-10T17:02:09.704Z,5.40
2019-03-10T17:04:38.641Z,4.17
2019-03-10T17:07:07.593Z,4.40
2019-03-10T17:09:36.824Z,3.23
2019-03-10T17:12:05.874Z,3.63
2019-03-10T17:14:34.854Z,2.57
2019-03-10T17:17:03.920Z,3.70
2019-03-10T17:19:33.077Z,2.77
2019-03-10T17:22:02.046Z,3.33
2019-03-10T17:24:30.941Z,2.30
2019-03-10T17:26:59.896Z,2.10
2019-03-10T17:29:28.972Z,4.00
2019-03-10T17:31:57.902Z,2.83
2019-03-10T17:34:26.796Z,4.67
2019-03-10T17:36:55.858Z,2.40
2019-03-10T17:39:25.011Z,2.77
2019-03-10T17:41:53.918Z,2.90
2019-03-10T17:44:22.961Z,2.40
2019-03-10T17:46:53.424Z,2.70
2019-03-10T17:49:22.175Z,2.43
2019-03-10T17:51:50.985Z,2.40
2019-03-10T17:54:19.764Z,2.30
2019-03-10T17:56:49.582Z,2.93
2019-03-10T17:59:20.092Z,2.20
2019-03-10T18:01:48.874Z,2.90
2019-03-10T18:04:36.680Z,3.10
2019-03-10T18:07:05.925Z,2.30
2019-03-10T18:09:35.197Z,3.03
2019-03-10T18:12:05.921Z,2.73
2019-03-10T18:14:34.703Z,3.13
2019-03-10T18:17:03.586Z,2.43
2019-03-10T18:19:33.987Z,1.67
2019-03-10T18:22:02.773Z,1.77
2019-03-10T18:24:31.662Z,1.27
2019-03-10T18:27:00.644Z,1.00
2019-03-10T18:29:29.440Z,1.10
2019-03-10T18:31:58.322Z,0.60
2019-03-10T18:34:27.137Z,0.50
2019-03-10T18:36:55.961Z,0.50
2019-03-10T18:39:24.946Z,2.45
2019-03-10T18:41:53.872Z,0.40
2019-03-10T18:44:23.663Z,0.60
2019-03-10T18:46:52.706Z,0.40
2019-03-10T18:49:21.547Z,0.62
2019-03-10T18:51:50.376Z,0.50
2019-03-10T18:54:19.365Z,0.50
2019-03-10T18:56:48.167Z,0.60
2019-03-10T18:59:17.140Z,0.55
2019-03-10T19:01:45.980Z,0.88
2019-03-10T19:04:14.934Z,0.80
2019-03-10T19:06:43.821Z,0.50
2019-03-10T19:09:12.643Z,0.60
2019-03-10T19:11:41.828Z,1.02
2019-03-10T19:14:10.615Z,0.70
2019-03-10T19:16:39.441Z,0.60
2019-03-10T19:19:08.435Z,0.85
2019-03-10T19:21:37.260Z,0.72
2019-03-10T19:24:06.092Z,0.68
2019-03-10T19:26:34.978Z,0.70
2019-03-10T19:29:04.144Z,0.90
2019-03-10T19:31:33.235Z,1.05
2019-03-10T19:34:02.209Z,0.80
2019-03-10T19:36:31.125Z,0.82
2019-03-10T19:39:00.133Z,1.05
2019-03-10T19:41:29.077Z,1.00
2019-03-10T19:43:57.898Z,0.98
2019-03-10T19:46:26.738Z,1.50
2019-03-10T19:48:55.581Z,1.15
2019-03-10T19:51:24.684Z,0.80
2019-03-10T19:53:53.487Z,1.65
2019-03-10T19:56:22.248Z,1.55
2019-03-10T19:58:51.033Z,1.98
2019-03-10T20:01:19.799Z,0.80
2019-03-10T20:03:48.585Z,1.07
2019-03-10T20:06:17.388Z,1.37
2019-03-10T20:12:14.980Z,1.37
2019-03-10T20:14:43.797Z,1.10
2019-03-10T20:17:12.576Z,1.40
2019-03-10T20:19:41.372Z,1.90
2019-03-10T20:22:10.157Z,1.67
2019-03-10T20:24:38.990Z,2.00
2019-03-10T20:27:07.806Z,1.70
2019-03-10T20:29:36.588Z,1.40
2019-03-10T20:32:14.013Z,1.80
2019-03-10T20:34:36.740Z,1.90
2019-03-10T20:37:05.524Z,1.70
2019-03-10T20:39:36.262Z,2.22
2019-03-10T20:42:05.609Z,2.00
2019-03-10T20:44:34.626Z,2.22
2019-03-10T20:47:03.421Z,1.95
2019-03-10T20:49:32.230Z,2.00
2019-03-10T20:52:01.013Z,2.12
2019-03-10T20:54:29.816Z,1.80
2019-03-10T20:56:58.606Z,1.75
2019-03-10T20:59:27.414Z,2.27
2019-03-10T21:01:56.180Z,1.52
2019-03-10T21:04:27.481Z,1.35
2019-03-10T21:06:56.264Z,1.25
2019-03-10T21:09:27.360Z,1.70
2019-03-10T21:11:55.577Z,1.90
2019-03-10T21:14:24.389Z,1.25
2019-03-10T21:16:53.237Z,1.20
2019-03-10T21:19:22.162Z,1.10
2019-03-10T21:21:51.099Z,1.12
2019-03-10T21:24:20.009Z,1.70
2019-03-10T21:26:48.806Z,1.30
2019-03-10T21:29:18.695Z,1.32
2019-03-10T21:31:47.602Z,1.25
2019-03-10T21:34:16.467Z,1.02
2019-03-10T21:36:45.286Z,1.22
2019-03-10T21:39:14.127Z,1.47
2019-03-10T21:41:43.085Z,6.53
2019-03-10T21:44:11.904Z,1.30
2019-03-10T21:46:41.025Z,1.50
2019-03-10T21:49:09.846Z,1.87
2019-03-10T21:51:38.718Z,1.50
2019-03-10T21:54:07.566Z,2.37
2019-03-10T21:56:36.362Z,1.27
2019-03-10T21:59:05.147Z,1.50
2019-03-10T22:01:33.943Z,1.95
2019-03-10T22:04:02.723Z,1.85
2019-03-10T22:06:31.576Z,1.00
2019-03-10T22:09:00.409Z,1.57
2019-03-10T22:11:29.199Z,1.60
2019-03-10T22:13:58.001Z,1.52
2019-03-10T22:16:26.796Z,2.10
2019-03-10T22:18:55.695Z,1.10
2019-03-10T22:21:24.512Z,1.00
2019-03-10T22:23:59.160Z,0.80
2019-03-10T22:26:23.869Z,4.30
2019-03-10T22:28:52.713Z,1.20
2019-03-10T22:31:21.605Z,3.95
2019-03-10T22:33:50.457Z,117.75
2019-03-10T22:36:19.252Z,61.08
2019-03-10T22:38:48.037Z,64.17
2019-03-10T22:41:16.868Z,39.88
2019-03-10T22:43:45.644Z,15.70
2019-03-10T22:46:14.432Z,37.48
2019-03-10T22:48:43.221Z,27.70
2019-03-10T22:51:12.008Z,4.90
2019-03-10T22:53:40.773Z,3.80
2019-03-10T22:56:09.565Z,32.03
2019-03-10T22:58:38.341Z,52.93
2019-03-10T23:01:07.268Z,4.40
2019-03-10T23:03:36.112Z,4.22
2019-03-10T23:06:04.977Z,6.37
2019-03-10T23:08:33.769Z,4.53
2019-03-10T23:11:02.574Z,7.10
2019-03-10T23:13:31.364Z,6.15
2019-03-10T23:16:00.170Z,7.60
2019-03-10T23:18:28.940Z,5.22
2019-03-10T23:20:57.724Z,6.30
2019-03-10T23:23:26.505Z,8.00
2019-03-10T23:25:55.301Z,7.00
2019-03-10T23:28:24.673Z,7.00
2019-03-10T23:30:53.461Z,8.45
2019-03-10T23:33:22.308Z,6.60
2019-03-10T23:35:51.078Z,6.78
2019-03-10T23:38:19.873Z,7.10
2019-03-10T23:40:48.664Z,8.30
2019-03-10T23:43:17.450Z,8.33
2019-03-10T23:45:46.216Z,8.83
2019-03-10T23:48:15.009Z,7.12
2019-03-10T23:50:43.778Z,7.05
2019-03-10T23:53:12.567Z,12.10
2019-03-10T23:55:41.353Z,8.08
2019-03-10T23:58:10.392Z,7.78
